Time;durP1;ratioP1;P1;durP2;ratioP2;P2;SDS_P1;SDS_P2;PMS_P1;PMS_P2;Temp;Humidity;BMP_temperature;BMP_pressure;BME280_temperature;BME280_humidity;BME280_pressure;Samples;Min_cycle;Max_cycle;Signal;HPM_P1;HPM_P2
2021/12/07 00:00:05;;;;;;;39.08;19.02;;;;;;;0.97;100.00;98650.59;4196639;85;28486;-75
2021/12/07 00:06:09;;;;;;;33.65;18.10;;;;;;;0.86;100.00;98656.80;4196878;83;28524;-73
2021/12/07 00:12:12;;;;;;;41.15;19.77;;;;;;;1.03;100.00;98657.48;4206941;83;28545;-73
2021/12/07 00:18:13;;;;;;;35.50;17.67;;;;;;;0.93;100.00;98632.08;4205812;83;28571;-73
2021/12/07 00:24:16;;;;;;;22.40;10.98;;;;;;;0.82;100.00;98620.59;4214241;83;28587;-73
2021/12/07 00:30:18;;;;;;;19.02;9.70;;;;;;;0.57;100.00;98633.19;4166256;85;28569;-73
2021/12/07 00:36:20;;;;;;;19.23;10.08;;;;;;;0.74;100.00;98643.17;4191013;84;28541;-76
2021/12/07 00:42:22;;;;;;;22.93;11.15;;;;;;;0.62;100.00;98642.75;4192044;83;28502;-73
2021/12/07 00:48:26;;;;;;;21.68;10.45;;;;;;;0.62;100.00;98634.81;4134748;85;28554;-72
2021/12/07 00:54:27;;;;;;;21.25;10.10;;;;;;;0.33;100.00;98634.52;4194127;83;28485;-74
2021/12/07 01:00:30;;;;;;;19.55;10.15;;;;;;;0.23;100.00;98643.16;4194173;83;28483;-73
2021/12/07 01:06:45;;;;;;;18.02;9.60;;;;;;;0.24;100.00;98635.04;4194101;83;28478;-73
2021/12/07 01:25:16;;;;;;;17.07;9.03;;;;;;;0.51;100.00;98636.87;4097322;86;28928;-72
2021/12/07 01:31:24;;;;;;;16.60;8.33;;;;;;;0.24;100.00;98624.46;4118266;86;28487;-72
2021/12/07 01:44:16;;;;;;;16.20;8.78;;;;;;;0.11;100.00;98621.09;4133418;86;28591;-72
2021/12/07 02:02:29;;;;;;;17.62;9.35;;;;;;;-0.27;100.00;98604.23;4136547;86;28471;-72
2021/12/07 02:08:30;;;;;;;17.48;9.05;;;;;;;0.09;100.00;98605.87;4111443;85;28584;-73
2021/12/07 02:14:33;;;;;;;18.67;10.08;;;;;;;0.12;100.00;98610.00;4179646;83;28484;-73
2021/12/07 02:20:36;;;;;;;19.15;9.35;;;;;;;0.10;100.00;98612.00;4204029;83;28563;-73
2021/12/07 02:26:39;;;;;;;21.87;10.88;;;;;;;0.19;100.00;98606.98;4220523;83;28505;-72
2021/12/07 02:32:41;;;;;;;19.35;9.85;;;;;;;0.19;100.00;98612.77;4213958;83;28566;-71
2021/12/07 02:38:45;;;;;;;19.42;10.20;;;;;;;0.09;100.00;98611.16;4104035;85;28515;-72
2021/12/07 02:44:46;;;;;;;21.15;9.95;;;;;;;-0.02;100.00;98607.59;4199514;84;28599;-72
2021/12/07 02:50:50;;;;;;;25.75;11.30;;;;;;;0.15;100.00;98609.64;4208003;84;28563;-72
2021/12/07 02:56:53;;;;;;;26.05;11.15;;;;;;;-0.06;100.00;98600.50;4193244;84;44818;-72
2021/12/07 03:03:01;;;;;;;21.97;10.48;;;;;;;0.05;100.00;98597.14;4189787;84;28517;-73
2021/12/07 03:27:56;;;;;;;27.82;11.93;;;;;;;0.11;100.00;98618.92;4213760;83;28439;-74
2021/12/07 03:34:00;;;;;;;26.90;11.75;;;;;;;0.19;100.00;98620.70;4227722;83;28562;-74
2021/12/07 03:40:05;;;;;;;29.57;12.37;;;;;;;0.09;100.00;98628.86;4163835;84;28496;-74
2021/12/07 03:46:09;;;;;;;26.85;12.25;;;;;;;-0.01;100.00;98635.18;4170416;84;28484;-74
2021/12/07 03:52:10;;;;;;;25.60;10.90;;;;;;;-0.07;100.00;98633.73;4182528;83;28501;-73
2021/12/07 03:58:13;;;;;;;24.00;10.98;;;;;;;0.04;100.00;98626.73;4222853;84;28498;-74
2021/12/07 04:04:16;;;;;;;26.85;11.63;;;;;;;0.19;100.00;98636.56;4222691;84;28452;-70
2021/12/07 04:10:20;;;;;;;23.12;10.35;;;;;;;0.02;100.00;98641.11;4213231;84;28529;-73
2021/12/07 04:16:22;;;;;;;20.45;10.23;;;;;;;0.07;100.00;98644.08;4150336;84;28529;-74
2021/12/07 04:22:25;;;;;;;22.15;10.40;;;;;;;0.06;100.00;98660.94;4155737;85;28473;-72
2021/12/07 04:28:27;;;;;;;22.20;10.10;;;;;;;-0.30;100.00;98658.27;4181440;85;28560;-72
2021/12/07 04:34:28;;;;;;;24.57;10.68;;;;;;;-0.20;100.00;98661.53;4208134;84;28474;-72
2021/12/07 04:40:32;;;;;;;17.00;9.23;;;;;;;-0.08;100.00;98654.55;4155371;83;28477;-72
2021/12/07 04:46:48;;;;;;;17.85;8.95;;;;;;;-0.10;100.00;98647.30;4161399;85;28510;-70
2021/12/07 04:58:59;;;;;;;20.55;9.95;;;;;;;-0.10;100.00;98649.42;4179099;85;28469;-72
2021/12/07 05:05:01;;;;;;;23.32;10.38;;;;;;;0.16;100.00;98660.71;4179839;85;28490;-73
2021/12/07 05:42:26;;;;;;;26.68;11.55;;;;;;;-0.15;100.00;98661.02;4175582;85;28473;-72
2021/12/07 05:48:27;;;;;;;24.65;11.50;;;;;;;-0.30;100.00;98654.30;4128569;85;28537;-73
2021/12/07 05:54:29;;;;;;;26.48;10.93;;;;;;;-0.40;100.00;98650.52;4188075;84;28535;-72
2021/12/07 06:00:33;;;;;;;26.00;11.65;;;;;;;-0.18;100.00;98645.48;4248224;83;28514;-71
2021/12/07 06:06:34;;;;;;;25.60;10.13;;;;;;;0.05;100.00;98650.01;4230906;83;28475;-71
2021/12/07 06:12:35;;;;;;;28.57;11.83;;;;;;;0.07;100.00;98659.42;4167037;83;43398;-73
2021/12/07 06:18:37;;;;;;;30.97;12.90;;;;;;;-0.12;100.00;98665.95;4200978;84;28536;-71
2021/12/07 06:24:38;;;;;;;30.97;12.60;;;;;;;-0.03;100.00;98672.86;4164475;84;28455;-73
2021/12/07 06:30:42;;;;;;;30.23;12.47;;;;;;;-0.12;100.00;98663.80;4175350;84;28482;-71
2021/12/07 06:36:44;;;;;;;31.20;11.97;;;;;;;-0.12;100.00;98666.44;4173178;83;28533;-73
2021/12/07 06:42:45;;;;;;;31.95;12.60;;;;;;;-0.13;100.00;98665.63;4238494;84;28567;-73
2021/12/07 06:48:46;;;;;;;33.73;12.65;;;;;;;-0.05;100.00;98672.21;4168934;84;28488;-72
2021/12/07 06:54:48;;;;;;;33.08;12.23;;;;;;;-0.19;100.00;98686.95;4161589;84;28552;-71
2021/12/07 07:00:49;;;;;;;32.03;12.68;;;;;;;-0.23;100.00;98694.07;4173235;84;28433;-74
2021/12/07 07:06:51;;;;;;;30.77;12.75;;;;;;;0.01;100.00;98694.98;4167226;85;28556;-71
2021/12/07 07:12:52;;;;;;;28.87;12.70;;;;;;;-0.08;100.00;98699.48;4165026;84;28580;-73
2021/12/07 07:18:54;;;;;;;29.65;12.05;;;;;;;0.01;100.00;98702.91;4186171;83;28535;-73
2021/12/07 07:24:55;;;;;;;29.42;12.47;;;;;;;-0.11;100.00;98705.92;4186052;83;28524;-72
2021/12/07 07:30:57;;;;;;;27.42;11.70;;;;;;;-0.15;100.00;98710.72;4180786;83;28551;-75
2021/12/07 07:36:59;;;;;;;32.13;12.85;;;;;;;-0.13;100.00;98717.64;4135201;84;28445;-74
2021/12/07 07:43:00;;;;;;;32.95;12.98;;;;;;;0.13;100.00;98719.55;4186144;84;28529;-73
2021/12/07 07:55:19;;;;;;;30.77;13.58;;;;;;;-0.05;100.00;98725.56;3679562;93;28497;-73
2021/12/07 08:01:23;;;;;;;34.08;13.75;;;;;;;-0.24;100.00;98721.49;3744730;93;28511;-72
2021/12/07 08:07:24;;;;;;;32.38;13.93;;;;;;;-0.44;100.00;98730.59;3782204;92;28475;-73
2021/12/07 08:13:26;;;;;;;38.50;14.00;;;;;;;-0.19;100.00;98731.05;3785017;93;28496;-73
2021/12/07 08:19:27;;;;;;;37.95;14.25;;;;;;;-0.27;100.00;98724.45;3780778;92;28560;-72
2021/12/07 08:25:29;;;;;;;31.00;13.50;;;;;;;-0.21;100.00;98725.11;3786632;92;28514;-72
2021/12/07 08:31:31;;;;;;;31.97;13.48;;;;;;;-0.16;100.00;98724.09;3981803;85;28449;-74
2021/12/07 08:37:34;;;;;;;31.93;13.83;;;;;;;0.08;100.00;98717.09;4124782;84;28459;-74
2021/12/07 08:43:40;;;;;;;35.80;15.05;;;;;;;0.05;100.00;98727.98;4122699;84;28568;-76
2021/12/07 08:49:41;;;;;;;38.40;15.55;;;;;;;-0.42;100.00;98730.43;4131458;85;28499;-70
2021/12/07 09:02:07;;;;;;;32.85;14.38;;;;;;;-0.10;100.00;98735.83;4124974;84;28514;-72
2021/12/07 09:08:08;;;;;;;32.25;15.38;;;;;;;-0.12;100.00;98732.02;4126058;85;28575;-70
2021/12/07 09:14:13;;;;;;;34.13;16.07;;;;;;;0.06;100.00;98722.55;4128211;85;28561;-70
2021/12/07 09:20:17;;;;;;;36.45;14.85;;;;;;;0.22;100.00;98715.05;4181945;83;28483;-73
2021/12/07 09:26:18;;;;;;;34.33;14.98;;;;;;;0.05;100.00;98727.98;4181682;84;28497;-75
2021/12/07 09:32:20;;;;;;;37.78;15.50;;;;;;;-0.12;100.00;98728.55;4189804;83;28637;-73
2021/12/07 09:38:23;;;;;;;36.88;16.07;;;;;;;-0.11;100.00;98731.51;4187682;84;28537;-73
2021/12/07 09:44:25;;;;;;;40.58;17.48;;;;;;;0.02;100.00;98732.30;4179090;84;28489;-75
2021/12/07 09:50:28;;;;;;;39.03;17.07;;;;;;;-0.06;100.00;98731.84;4181550;84;28593;-72
2021/12/07 09:56:30;;;;;;;38.17;16.27;;;;;;;0.18;100.00;98731.42;4176427;84;28504;-71
2021/12/07 10:02:32;;;;;;;38.35;16.77;;;;;;;0.21;100.00;98728.42;4182520;83;28502;-70
2021/12/07 10:08:35;;;;;;;41.40;16.32;;;;;;;0.16;100.00;98729.45;4184003;83;28446;-71
2021/12/07 10:14:39;;;;;;;43.90;17.98;;;;;;;0.16;100.00;98728.13;4178125;84;28551;-70
2021/12/07 10:20:49;;;;;;;39.08;17.27;;;;;;;0.14;100.00;98733.58;4193867;83;28506;-69
2021/12/07 10:26:50;;;;;;;39.45;16.65;;;;;;;0.29;100.00;98736.33;4198311;83;28463;-69
2021/12/07 10:33:05;;;;;;;42.23;17.67;;;;;;;0.28;100.00;98725.43;4198315;83;28542;-70
2021/12/07 10:39:28;;;;;;;42.80;17.15;;;;;;;0.23;100.00;98737.03;4192597;83;28529;-70
2021/12/07 10:45:30;;;;;;;39.73;17.10;;;;;;;0.16;100.00;98728.13;4188408;83;28574;-71
2021/12/07 10:51:31;;;;;;;40.48;16.60;;;;;;;0.31;100.00;98733.01;4193794;83;28510;-73
2021/12/07 10:58:01;;;;;;;33.45;14.93;;;;;;;0.14;100.00;98736.22;4191958;83;28513;-72
2021/12/07 11:04:29;;;;;;;30.55;13.95;;;;;;;0.49;100.00;98743.37;4199396;83;28565;-72
2021/12/07 11:10:34;;;;;;;34.75;14.43;;;;;;;0.51;100.00;98732.11;4194020;83;28481;-72
2021/12/07 11:16:38;;;;;;;34.08;14.45;;;;;;;0.19;100.00;98737.88;4172777;83;28556;-71
2021/12/07 11:22:48;;;;;;;34.43;14.60;;;;;;;0.48;100.00;98735.59;4101458;85;28530;-71
2021/12/07 11:35:26;;;;;;;35.05;13.75;;;;;;;0.03;100.00;98743.20;4139733;84;28506;-72
2021/12/07 11:41:32;;;;;;;35.58;14.58;;;;;;;-0.01;100.00;98744.88;4135803;84;28482;-71
2021/12/07 11:47:55;;;;;;;37.35;15.43;;;;;;;0.09;100.00;98745.17;4148009;84;28534;-71
2021/12/07 11:53:58;;;;;;;39.05;15.35;;;;;;;0.01;100.00;98730.17;4148070;84;28479;-70
2021/12/07 11:59:59;;;;;;;38.45;16.10;;;;;;;-0.08;100.00;98739.92;4052347;86;28466;-72
2021/12/07 12:06:01;;;;;;;38.05;15.40;;;;;;;-0.05;100.00;98729.52;4063666;86;28560;-71
2021/12/07 12:12:42;;;;;;;43.08;16.77;;;;;;;-0.09;100.00;98738.80;4115230;85;28487;-70
2021/12/07 12:19:22;;;;;;;40.40;16.07;;;;;;;0.16;100.00;98745.31;4148094;83;28506;-71
2021/12/07 12:25:26;;;;;;;42.60;16.25;;;;;;;0.07;100.00;98746.66;4183769;83;28553;-70
2021/12/07 12:31:52;;;;;;;43.40;16.73;;;;;;;0.04;100.00;98744.84;4162416;83;37956;-70
2021/12/07 12:37:53;;;;;;;35.35;15.00;;;;;;;0.17;100.00;98735.91;4183843;83;28551;-71
2021/12/07 12:43:59;;;;;;;42.20;16.60;;;;;;;0.24;100.00;98730.75;4186485;83;28513;-71
2021/12/07 12:50:20;;;;;;;41.00;16.37;;;;;;;0.32;100.00;98740.46;4179099;84;28458;-72
2021/12/07 12:56:26;;;;;;;37.50;16.00;;;;;;;0.09;100.00;98743.86;4175664;85;28520;-72
2021/12/07 13:02:29;;;;;;;40.55;16.02;;;;;;;0.13;100.00;98752.59;4168729;84;28545;-72
2021/12/07 13:08:30;;;;;;;36.00;15.48;;;;;;;0.20;100.00;98747.94;4175837;84;28524;-71
2021/12/07 13:14:51;;;;;;;36.40;15.30;;;;;;;0.13;100.00;98760.53;4184649;84;28483;-71
2021/12/07 13:20:53;;;;;;;38.70;14.07;;;;;;;0.27;100.00;98767.42;4206946;83;28492;-71
2021/12/07 13:26:54;;;;;;;35.43;14.40;;;;;;;0.10;100.00;98782.52;4219927;83;44508;-70
2021/12/07 13:33:12;;;;;;;37.78;14.87;;;;;;;0.12;100.00;98780.04;4216571;83;28524;-72
2021/12/07 13:39:23;;;;;;;37.78;13.65;;;;;;;-0.14;100.00;98777.62;4208350;83;44581;-76
2021/12/07 13:45:24;;;;;;;34.92;14.95;;;;;;;0.15;100.00;98777.53;4212555;83;28508;-69
2021/12/07 13:51:28;;;;;;;38.17;15.78;;;;;;;-0.01;100.00;98792.94;4214536;83;28531;-73
2021/12/07 13:57:35;;;;;;;39.10;15.45;;;;;;;-0.27;100.00;98795.30;4213077;83;28670;-72
2021/12/07 14:03:43;;;;;;;46.88;17.55;;;;;;;0.02;100.00;98793.94;4205403;83;28466;-76
2021/12/07 14:09:44;;;;;;;44.53;16.17;;;;;;;-0.31;100.00;98804.05;4213212;83;28501;-74
2021/12/07 14:15:49;;;;;;;45.92;17.12;;;;;;;-0.43;100.00;98810.67;4212483;83;28514;-75
2021/12/07 14:21:53;;;;;;;49.90;17.00;;;;;;;-0.21;100.00;98816.27;4175042;84;28602;-73
2021/12/07 14:27:56;;;;;;;40.15;16.25;;;;;;;-0.13;100.00;98818.91;4106971;85;28520;-74
2021/12/07 14:34:05;;;;;;;44.18;16.07;;;;;;;-0.20;100.00;98823.20;4144131;84;28487;-72
2021/12/07 14:40:08;;;;;;;44.83;16.62;;;;;;;-0.26;100.00;98828.66;4142916;84;28489;-75
2021/12/07 14:46:13;;;;;;;44.13;17.27;;;;;;;-0.27;100.00;98835.41;4160454;84;28524;-77
2021/12/07 14:52:20;;;;;;;50.63;16.50;;;;;;;-0.58;100.00;98830.31;4148674;85;28548;-79
2021/12/07 14:58:31;;;;;;;46.05;16.67;;;;;;;-0.65;100.00;98828.82;4132139;85;28536;-74
2021/12/07 15:04:33;;;;;;;39.45;15.23;;;;;;;-0.62;100.00;98835.59;4141883;85;28495;-80
2021/12/07 15:10:36;;;;;;;30.50;12.00;;;;;;;-0.62;100.00;98842.20;4143193;85;28541;-81
2021/12/07 15:16:41;;;;;;;32.25;12.75;;;;;;;-0.53;100.00;98849.11;4135465;84;28487;-78
2021/12/07 15:22:44;;;;;;;37.45;14.30;;;;;;;-0.69;100.00;98858.36;4132040;84;28552;-79
2021/12/07 15:28:54;;;;;;;39.03;16.07;;;;;;;-0.52;100.00;98855.23;4116044;84;44524;-76
2021/12/07 15:34:56;;;;;;;43.83;16.42;;;;;;;-0.66;100.00;98865.94;4130940;84;28485;-75
2021/12/07 15:40:57;;;;;;;39.18;15.78;;;;;;;-0.66;100.00;98865.45;4119558;84;28524;-75
2021/12/07 15:47:13;;;;;;;40.38;15.55;;;;;;;-0.65;100.00;98868.43;4117328;84;28457;-75
2021/12/07 15:53:14;;;;;;;37.40;15.32;;;;;;;-0.56;100.00;98865.30;4115420;84;28485;-76
2021/12/07 15:59:17;;;;;;;41.92;15.98;;;;;;;-0.83;100.00;98873.00;4146416;84;28457;-76
2021/12/07 16:05:19;;;;;;;41.15;15.58;;;;;;;-0.54;100.00;98870.42;4121276;84;44437;-78
2021/12/07 16:11:24;;;;;;;38.33;15.05;;;;;;;-0.38;100.00;98875.70;4122139;84;44433;-75
2021/12/07 16:17:25;;;;;;;39.87;16.00;;;;;;;-0.28;100.00;98884.81;4125277;84;28503;-78
2021/12/07 16:23:30;;;;;;;39.73;15.53;;;;;;;-0.62;100.00;98884.45;4150133;85;28474;-79
2021/12/07 16:29:31;;;;;;;39.98;14.78;;;;;;;-0.63;100.00;98889.38;4116904;85;28547;-73
2021/12/07 16:35:34;;;;;;;43.38;16.80;;;;;;;-0.52;100.00;98897.02;4110858;85;28569;-76
2021/12/07 16:41:36;;;;;;;45.17;16.50;;;;;;;-0.53;100.00;98897.97;4053032;86;28514;-75
2021/12/07 16:47:38;;;;;;;49.50;18.60;;;;;;;-0.40;100.00;98890.90;4189554;83;28514;-74
2021/12/07 16:53:40;;;;;;;44.50;17.15;;;;;;;-0.41;100.00;98882.64;4185469;84;28541;-75
2021/12/07 16:59:42;;;;;;;40.63;16.82;;;;;;;-0.52;100.00;98881.64;4189514;84;44472;-74
2021/12/07 17:05:50;;;;;;;40.98;16.55;;;;;;;-0.32;100.00;98883.47;4171207;83;28500;-74
2021/12/07 17:11:52;;;;;;;41.23;16.57;;;;;;;-0.52;100.00;98880.33;4202222;83;28568;-73
2021/12/07 17:17:54;;;;;;;49.93;20.50;;;;;;;-0.60;100.00;98870.58;4194860;83;28518;-74
2021/12/07 17:23:56;;;;;;;51.83;19.27;;;;;;;-0.76;100.00;98879.30;4123266;83;28437;-72
2021/12/07 17:29:59;;;;;;;46.28;17.32;;;;;;;-0.78;100.00;98873.33;4189373;83;28458;-72
2021/12/07 17:36:01;;;;;;;55.23;18.45;;;;;;;-0.76;100.00;98880.63;4190153;83;28438;-72
2021/12/07 17:42:03;;;;;;;49.03;18.35;;;;;;;-1.09;100.00;98876.55;4195582;83;28527;-72
2021/12/07 17:48:05;;;;;;;50.48;18.52;;;;;;;-0.90;100.00;98874.95;4192360;83;28464;-76
2021/12/07 17:54:08;;;;;;;49.88;19.45;;;;;;;-0.97;100.00;98885.84;4194055;83;28533;-75
2021/12/07 18:00:15;;;;;;;53.73;19.45;;;;;;;-0.90;100.00;98878.91;4195980;83;44088;-73
2021/12/07 18:06:16;;;;;;;53.90;21.00;;;;;;;-1.07;100.00;98871.45;4195491;83;44163;-73
2021/12/07 18:12:19;;;;;;;48.83;19.80;;;;;;;-0.84;100.00;98873.48;4191666;84;43757;-73
2021/12/07 18:18:22;;;;;;;45.40;18.32;;;;;;;-1.10;100.00;98868.30;4197682;83;28502;-72
2021/12/07 18:24:25;;;;;;;50.83;19.15;;;;;;;-1.04;100.00;98867.19;4202775;83;43772;-73
2021/12/07 18:30:35;;;;;;;47.00;19.12;;;;;;;-0.90;100.00;98872.31;4208064;84;43749;-73
2021/12/07 18:36:35;;;;;;;50.70;19.65;;;;;;;-1.01;100.00;98865.54;4174968;84;44474;-74
2021/12/07 18:42:36;;;;;;;47.15;18.82;;;;;;;-1.00;100.00;98863.70;4209547;84;43781;-73
2021/12/07 18:48:39;;;;;;;50.28;18.92;;;;;;;-1.25;100.00;98866.28;4167610;85;43801;-74
2021/12/07 18:54:42;;;;;;;44.13;18.82;;;;;;;-0.94;100.00;98865.72;4184361;85;28482;-73
2021/12/07 19:00:50;;;;;;;48.13;18.25;;;;;;;-1.26;100.00;98866.75;4181952;83;28516;-73
2021/12/07 19:06:51;;;;;;;40.20;15.78;;;;;;;-1.20;100.00;98879.80;4180045;85;44441;-74
2021/12/07 19:12:54;;;;;;;41.37;16.70;;;;;;;-0.92;100.00;98870.84;4169130;85;44426;-74
2021/12/07 19:18:55;;;;;;;46.85;19.00;;;;;;;-0.97;100.00;98876.61;4178190;83;43749;-75
2021/12/07 19:24:57;;;;;;;50.35;19.52;;;;;;;-1.09;100.00;98885.78;4185222;83;28462;-74
2021/12/07 19:31:02;;;;;;;47.83;19.10;;;;;;;-1.29;100.00;98892.14;4181471;83;43726;-74
2021/12/07 19:37:06;;;;;;;49.87;19.73;;;;;;;-1.19;100.00;98895.16;4181085;84;28480;-75
2021/12/07 19:43:10;;;;;;;48.45;18.85;;;;;;;-1.07;100.00;98887.79;4188913;83;43718;-75
2021/12/07 19:49:14;;;;;;;49.60;19.17;;;;;;;-1.01;100.00;98891.93;4193209;83;44105;-72
2021/12/07 19:55:20;;;;;;;52.48;19.90;;;;;;;-1.09;100.00;98885.78;4179772;83;28520;-73
2021/12/07 20:01:25;;;;;;;58.48;21.37;;;;;;;-1.15;100.00;98896.48;4098298;85;28578;-73
2021/12/07 20:07:30;;;;;;;53.98;20.60;;;;;;;-1.31;100.00;98884.88;4176517;83;28514;-73
2021/12/07 20:13:32;;;;;;;54.73;20.85;;;;;;;-1.11;100.00;98882.00;4184244;83;28508;-73
2021/12/07 20:19:34;;;;;;;49.95;19.95;;;;;;;-1.30;100.00;98884.38;4161675;84;44145;-71
2021/12/07 20:25:39;;;;;;;55.88;21.60;;;;;;;-1.23;100.00;98885.41;4145880;84;44198;-78
2021/12/07 20:31:43;;;;;;;56.90;21.77;;;;;;;-1.36;100.00;98881.88;4148230;84;44137;-77
2021/12/07 20:37:45;;;;;;;57.75;21.27;;;;;;;-1.32;100.00;98887.67;4153560;84;28492;-75
2021/12/07 20:43:53;;;;;;;64.32;23.02;;;;;;;-1.30;100.00;98881.73;4175037;84;43794;-73
2021/12/07 20:49:56;;;;;;;69.32;24.63;;;;;;;-1.24;100.00;98889.03;4152949;84;44407;-77
2021/12/07 20:55:58;;;;;;;70.80;23.98;;;;;;;-1.38;100.00;98885.68;4156193;84;44500;-73
2021/12/07 21:01:59;;;;;;;68.87;22.90;;;;;;;-1.34;100.00;98887.01;4179059;84;43716;-72
2021/12/07 21:08:01;;;;;;;79.00;25.02;;;;;;;-1.47;100.00;98889.59;4163658;84;44139;-72
2021/12/07 21:14:07;;;;;;;64.75;22.67;;;;;;;-1.48;100.00;98888.41;4147770;84;43724;-73
2021/12/07 21:20:10;;;;;;;62.40;22.52;;;;;;;-1.34;100.00;98889.64;4199555;82;42850;-72
2021/12/07 21:26:11;;;;;;;58.87;22.60;;;;;;;-1.32;100.00;98881.91;4238111;83;44090;-71
2021/12/07 21:32:13;;;;;;;57.73;21.68;;;;;;;-1.20;100.00;98889.03;4229233;83;44151;-73
2021/12/07 21:38:15;;;;;;;61.83;21.75;;;;;;;-1.39;100.00;98884.03;4223342;83;28490;-73
2021/12/07 21:44:18;;;;;;;60.38;19.85;;;;;;;-1.53;100.00;98882.80;4201663;83;44130;-73
2021/12/07 21:50:25;;;;;;;57.25;19.92;;;;;;;-1.82;100.00;98882.14;4222132;83;28481;-74
2021/12/07 21:56:29;;;;;;;;;;;;;;;-1.77;100.00;98880.34;4234629;83;28528;-72
2021/12/07 22:02:30;;;;;;;50.92;18.92;;;;;;;-1.50;100.00;98877.20;4233785;83;43714;-72
2021/12/07 22:08:32;;;;;;;45.95;18.10;;;;;;;-1.35;100.00;98876.12;4220431;83;43716;-74
2021/12/07 22:14:35;;;;;;;43.48;16.70;;;;;;;-1.41;100.00;98869.19;4195481;83;43637;-72
2021/12/07 22:20:39;;;;;;;45.55;17.52;;;;;;;-1.31;100.00;98859.83;4188320;83;43745;-73
2021/12/07 22:26:44;;;;;;;45.70;16.15;;;;;;;-1.49;100.00;98855.13;4196545;85;43670;-73
2021/12/07 22:32:46;;;;;;;42.60;17.45;;;;;;;-1.71;100.00;98853.36;4170389;84;28503;-73
2021/12/07 22:38:47;;;;;;;46.58;16.65;;;;;;;-1.66;100.00;98850.26;4193578;83;43717;-74
2021/12/07 22:44:49;;;;;;;42.10;15.63;;;;;;;-1.79;100.00;98840.97;4095911;85;44410;-74
2021/12/07 22:50:52;;;;;;;41.50;15.03;;;;;;;-2.02;100.00;98841.97;4237515;82;44500;-73
2021/12/07 22:56:54;;;;;;;48.02;17.57;;;;;;;-1.88;100.00;98844.54;4221248;82;43741;-74
2021/12/07 23:03:01;;;;;;;42.15;16.48;;;;;;;-1.65;100.00;98836.09;4224094;83;44442;-71
2021/12/07 23:09:06;;;;;;;44.38;16.70;;;;;;;-1.77;100.00;98843.43;4234801;83;43748;-72
2021/12/07 23:15:08;;;;;;;47.00;17.55;;;;;;;-1.80;100.00;98841.95;4228511;83;43761;-71
2021/12/07 23:21:14;;;;;;;48.33;16.93;;;;;;;-1.78;100.00;98849.21;4219172;83;43789;-72
2021/12/07 23:27:16;;;;;;;42.60;16.00;;;;;;;-1.72;100.00;98847.28;4215154;83;44465;-73
2021/12/07 23:33:19;;;;;;;41.80;15.78;;;;;;;-1.63;100.00;98844.19;4195230;83;44566;-74
2021/12/07 23:39:21;;;;;;;43.23;15.78;;;;;;;-1.50;100.00;98837.65;4191748;83;44408;-75
2021/12/07 23:45:22;;;;;;;45.38;16.85;;;;;;;-1.63;100.00;98826.21;4193066;83;43722;-75
2021/12/07 23:51:25;;;;;;;47.35;15.50;;;;;;;-1.48;100.00;98818.53;4198732;83;28572;-73
2021/12/07 23:57:28;;;;;;;47.80;16.67;;;;;;;-1.44;100.00;98814.11;4200049;83;43717;-73
